Bei Facebook empfehlenBei Twitter postenGoogle plusPinterest

Das Wetter im Erzgebirge am 02.12.2015

Wetter und Klima am 02.12.2015 Holzhau im Erzgebirge (630m ü.NN)
Letzte gemessene Temperatur und Uhrzeit der Messung23:45:00 Uhr3.80 °C
Temperatur (Maximum / Höchstwert) und Uhrzeit der Messung04:30:00 Uhr7.60 °C
Temperatur (Minimum / Tiefstwert) und Uhrzeit der Messung00:15:002.30 °C
Errechneter Absolutwert der Temperaturschwankungen zwischen Tmin und Tmax des Tages5.30 K
Errechnete Tagesmitteltemperatur5.56667 °C
Gesamt - Niederschlag des Tages (in flüssiger Form)2.07 Liter / m²
Luftdruck (Maximum / Höchstwert) und Zeitpunkt der Messung23:15:00 Uhr1023.80 hPa
Luftdruck (Minimum / Tiefstwert) und Zeitpunkt der Messung03:45:00 Uhr1019.30 hPa
Errechneter Absolutwert der Luftdruckschwankungen des Tages4.50 hPa
Höchste gemessene Windgeschwindigkeit und Uhrzeit der Messung07:15:00 Uhr183.60 km/h
Errechnete Windhäufigkeit in Relation zu den Messwerten des Tages27.08333 %
Niedrigste Windkühle (Windchill) und Zeitpunkt der Messung07:15:00 Uhr-2.60 °C
Taupunkt (Maximum / Höchstwert) und Uhrzeit der Messung04:30:00 Uhr7.00 °C
Taupunkt (Minimum / Tiefstwert) und Uhrzeit der Messung00:15:001.40 °C
Anzahl der automatisch eingelesenen Messwerte 96

Detaillierte Wetter- und Klima- Messwerte für den 02.12.2015 in Holzhau im Erzgebirge (630m ü.NN)
ZeitTemperaturLuftdruckRel. LuftfeuchteWindWindrichtungWindchillTaupunktNiederschlag l/m²
23:45:003.80 °C1023.50 hPa95.00 %3.10 °C2.07
23:30:003.90 °C1023.70 hPa95.00 %3.20 °C2.07
23:15:004.10 °C1023.80 hPa95.00 %3.40 °C2.07
23:00:004.10 °C1023.60 hPa95.00 %3.40 °C2.07
22:45:004.10 °C1023.60 hPa95.00 %3.40 °C2.07
22:30:004.10 °C1023.60 hPa95.00 %3.40 °C2.07
22:15:003.90 °C1023.60 hPa95.00 %3.20 °C2.07
22:00:003.90 °C1023.70 hPa95.00 %3.20 °C2.07
21:45:004.10 °C1023.70 hPa95.00 %3.40 °C2.07
21:30:004.10 °C1023.80 hPa95.00 %3.40 °C2.07
21:15:004.20 °C1023.70 hPa95.00 %3.50 °C2.07
21:00:004.30 °C1023.60 hPa95.00 %3.60 °C2.07
20:45:004.30 °C1023.80 hPa95.00 %3.60 °C2.07
20:30:004.30 °C1023.70 hPa95.00 %3.60 °C2.07
20:15:004.40 °C1023.60 hPa95.00 %3.70 °C2.07
20:00:004.40 °C1023.70 hPa95.00 %3.70 °C2.07
19:45:004.20 °C1023.80 hPa95.00 %3.50 °C2.07
19:30:004.20 °C1023.70 hPa95.00 %3.50 °C2.07
19:15:004.30 °C1023.60 hPa95.00 %3.60 °C2.07
19:00:004.30 °C1023.70 hPa95.00 %3.60 °C2.07
18:45:004.30 °C1023.50 hPa95.00 %3.60 °C2.07
18:30:004.30 °C1023.70 hPa95.00 %3.60 °C2.07
18:15:004.30 °C1023.40 hPa95.00 %3.60 °C2.07
18:00:004.40 °C1023.60 hPa95.00 %3.70 °C2.07
17:45:004.40 °C1023.30 hPa95.00 %3.70 °C2.07
17:30:004.40 °C1023.50 hPa95.00 %3.70 °C2.07
17:15:004.50 °C1023.40 hPa95.00 %3.80 °C2.07
17:00:004.60 °C1023.30 hPa95.00 %3.90 °C2.07
16:45:004.70 °C1023.40 hPa94.00 %3.80 °C2.07
16:30:004.80 °C1023.30 hPa94.00 %3.90 °C2.07
16:15:005.00 °C1023.10 hPa94.00 %4.10 °C2.07
16:00:005.10 °C1023.10 hPa94.00 %4.20 °C2.07
15:45:005.30 °C1023.20 hPa95.00 %4.60 °C2.07
15:30:005.40 °C1023.20 hPa95.00 %4.70 °C2.07
15:15:005.50 °C1023.10 hPa95.00 %4.80 °C2.07
15:00:005.60 °C1023.20 hPa95.00 %4.90 °C2.07
14:45:005.60 °C1023.10 hPa95.00 %4.90 °C2.07
14:30:005.80 °C1023.10 hPa95.00 %5.10 °C2.07
14:15:005.90 °C1023.10 hPa95.00 %5.20 °C2.07
14:00:006.10 °C1023.00 hPa95.00 %5.40 °C2.07
13:45:006.20 °C1023.10 hPa95.00 %5.50 °C2.07
13:30:006.40 °C1022.90 hPa95.00 %5.70 °C2.07
13:15:006.40 °C1022.90 hPa96.00 %5.80 °C2.07
13:00:006.60 °C1022.70 hPa96.00 %4.68 km/hNW6.60 °C6.00 °C2.07
12:45:006.80 °C1022.80 hPa96.00 %6.20 °C2.07
12:30:006.80 °C1022.70 hPa96.00 %6.20 °C2.07
12:15:006.90 °C1022.80 hPa96.00 %3.60 km/hNW6.90 °C6.30 °C2.07
12:00:006.80 °C1022.50 hPa96.00 %3.96 km/hW6.80 °C6.20 °C2.07
11:45:006.60 °C1022.50 hPa96.00 %2.16 km/hNW6.60 °C6.00 °C2.07
11:30:006.60 °C1022.40 hPa96.00 %6.00 °C2.07
11:15:006.50 °C1022.20 hPa96.00 %6.12 km/hWNW5.40 °C5.90 °C2.07
11:00:006.50 °C1022.20 hPa96.00 %5.90 °C2.07
10:45:006.50 °C1022.10 hPa96.00 %2.52 km/hNNW6.50 °C5.90 °C2.07
10:30:006.40 °C1022.00 hPa96.00 %5.80 °C2.07
10:15:006.40 °C1022.20 hPa96.00 %5.80 °C2.07
10:00:006.40 °C1022.10 hPa96.00 %5.80 °C2.07
09:45:006.40 °C1021.90 hPa96.00 %5.04 km/hWNW5.70 °C5.80 °C2.07
09:30:006.40 °C1021.80 hPa96.00 %7.20 km/hNNW5.00 °C5.80 °C2.07
09:15:006.40 °C1021.60 hPa96.00 %5.80 °C2.07
09:00:006.40 °C1021.30 hPa96.00 %5.80 °C2.07
08:45:006.50 °C1021.40 hPa96.00 %5.90 °C2.07
08:30:006.60 °C1021.20 hPa96.00 %6.84 km/hWNW5.30 °C6.00 °C2.07
08:15:006.70 °C1021.10 hPa96.00 %6.10 °C2.07
08:00:006.70 °C1020.80 hPa96.00 %6.10 °C2.07
07:45:006.80 °C1020.70 hPa96.00 %6.12 km/hW5.80 °C6.20 °C2.07
07:30:006.80 °C1020.40 hPa96.00 %6.12 km/hWSW5.80 °C6.20 °C2.07
07:15:006.80 °C1020.50 hPa96.00 %183.60 km/hWNW-2.60 °C6.20 °C2.07
07:00:006.80 °C1020.30 hPa96.00 %6.20 °C2.07
06:45:006.90 °C1020.20 hPa96.00 %6.84 km/hWSW5.70 °C6.30 °C2.07
06:30:006.90 °C1020.10 hPa96.00 %6.30 °C2.07
06:15:006.90 °C1020.20 hPa96.00 %6.30 °C2.07
06:00:007.00 °C1020.20 hPa96.00 %2.16 km/hW7.00 °C6.40 °C1.56
05:45:007.20 °C1020.10 hPa96.00 %6.60 °C1.56
05:30:007.20 °C1019.90 hPa96.00 %14.04 km/hWNW4.60 °C6.60 °C1.56
05:15:007.30 °C1019.80 hPa96.00 %6.12 km/hNW6.30 °C6.70 °C1.56
05:00:007.40 °C1019.70 hPa96.00 %6.80 °C1.56
04:45:007.50 °C1019.60 hPa96.00 %7.56 km/hW6.20 °C6.90 °C1.04
04:30:007.60 °C1019.60 hPa96.00 %11.52 km/hNNW5.50 °C7.00 °C1.04
04:15:007.60 °C1019.40 hPa96.00 %7.56 km/hWNW6.30 °C7.00 °C1.04
04:00:007.60 °C1019.40 hPa96.00 %7.00 °C1.04
03:45:007.50 °C1019.30 hPa96.00 %7.92 km/hW6.10 °C6.90 °C1.04
03:30:007.40 °C1019.40 hPa96.00 %6.80 °C1.04
03:15:007.30 °C1019.40 hPa96.00 %10.44 km/hWNW5.30 °C6.70 °C1.04
03:00:007.20 °C1019.40 hPa96.00 %3.96 km/hWNW7.20 °C6.60 °C1.04
02:45:007.00 °C1019.40 hPa96.00 %5.76 km/hN6.10 °C6.40 °C1.04
02:30:006.90 °C1019.50 hPa96.00 %6.30 °C1.04
02:15:006.50 °C1019.50 hPa96.00 %16.20 km/hW3.40 °C5.90 °C1.04
02:00:006.10 °C1019.40 hPa95.00 %4.32 km/hNW6.10 °C5.40 °C1.04
01:45:004.90 °C1019.30 hPa95.00 %2.88 km/hWNW4.90 °C4.20 °C0.52
01:30:003.90 °C1019.40 hPa95.00 %3.20 °C0.52
01:15:003.20 °C1019.30 hPa95.00 %2.50 °C0.52
01:00:002.80 °C1019.30 hPa94.00 %1.90 °C0.52
00:45:002.50 °C1019.40 hPa94.00 %1.60 °C 
00:30:002.40 °C1019.50 hPa94.00 %1.50 °C 
00:15:002.30 °C1019.30 hPa94.00 %1.40 °C 
00:00:002.30 °C1019.30 hPa94.00 %1.40 °C 

Permanenter Link zu dieser Seite: Wetter im Erzgebirge am 02.12.2015
Performance-Info: Die Erstellung der Seite / Statistik(en) / Tabelle(n) erforderte 5 Datenbankserver-Abfrage(n) und dauerte 104 Millisekunden. (Dieser Messwert ist von der Gesamt-Auslastung des Servers abhängig.)
Erzgebirge - Wetter | Erzgebirge - Wetter (Mobilgeräte) | Komplette Klimadatenbank